Time;durP1;ratioP1;P1;durP2;ratioP2;P2;SDS_P1;SDS_P2;PMS_P1;PMS_P2;Temp;Humidity;BMP_temperature;BMP_pressure;BME280_temperature;BME280_humidity;BME280_pressure;Samples;Min_cycle;Max_cycle;Signal;HPM_P1;HPM_P2
2024/04/07 00:02:03;;;;;;;23.77;22.13;;;18.70;99.90;;;;;;4978021;28;20431;-71
2024/04/07 00:04:29;;;;;;;23.33;21.63;;;18.60;99.90;;;;;;4976412;28;21327;-69
2024/04/07 00:06:55;;;;;;;23.27;21.45;;;18.60;99.90;;;;;;4996585;28;20627;-70
2024/04/07 00:09:21;;;;;;;23.30;21.65;;;18.60;99.90;;;;;;4992948;28;20053;-69
2024/04/07 00:11:48;;;;;;;23.88;22.13;;;18.60;99.90;;;;;;4972370;28;20414;-71
2024/04/07 00:14:14;;;;;;;23.88;21.98;;;18.70;99.90;;;;;;4977590;28;20042;-71
2024/04/07 00:16:40;;;;;;;22.65;21.17;;;18.70;99.90;;;;;;4998280;28;20083;-69
2024/04/07 00:19:08;;;;;;;23.63;21.70;;;18.70;99.90;;;;;;4995647;28;20045;-66
2024/04/07 00:21:35;;;;;;;22.70;21.00;;;18.80;99.90;;;;;;5017582;28;20071;-70
2024/04/07 00:24:01;;;;;;;22.63;21.23;;;18.70;99.90;;;;;;4993196;28;20053;-69
2024/04/07 00:26:27;;;;;;;22.92;21.20;;;18.80;99.90;;;;;;4974671;28;20042;-68
2024/04/07 00:28:53;;;;;;;23.13;21.45;;;18.80;99.90;;;;;;4986446;28;20045;-71
2024/04/07 00:31:19;;;;;;;23.88;21.90;;;18.80;99.90;;;;;;4964127;28;20095;-70
2024/04/07 00:33:45;;;;;;;22.50;21.10;;;18.90;99.90;;;;;;4993936;28;20084;-72
2024/04/07 00:36:11;;;;;;;23.08;21.58;;;18.90;99.90;;;;;;4980499;28;20505;-68
2024/04/07 00:38:37;;;;;;;23.42;21.80;;;18.90;99.90;;;;;;4992410;28;20064;-69
2024/04/07 00:41:04;;;;;;;22.88;21.17;;;18.90;99.90;;;;;;4981293;28;20855;-68
2024/04/07 00:43:30;;;;;;;23.38;21.63;;;18.80;99.90;;;;;;4989775;28;20053;-67
2024/04/07 00:45:58;;;;;;;22.60;20.95;;;18.80;99.90;;;;;;5003085;28;20046;-69
2024/04/07 00:48:24;;;;;;;23.50;21.63;;;18.80;99.90;;;;;;4982069;28;20054;-67
2024/04/07 00:50:55;;;;;;;22.80;21.10;;;18.80;99.90;;;;;;5013489;28;20057;-69
2024/04/07 00:53:22;;;;;;;22.85;21.35;;;18.80;99.90;;;;;;4966416;28;20053;-68
2024/04/07 00:55:49;;;;;;;22.38;20.77;;;18.70;99.90;;;;;;4990903;28;20057;-67
2024/04/07 00:58:17;;;;;;;23.20;21.40;;;18.80;99.90;;;;;;4990907;28;20046;-69
2024/04/07 01:00:44;;;;;;;23.25;21.45;;;18.90;99.90;;;;;;4964479;28;20069;-69
2024/04/07 01:06:03;;;;;;;23.25;21.55;;;19.00;99.90;;;;;;4990578;28;20037;-69
2024/04/07 01:08:29;;;;;;;23.45;21.95;;;18.90;99.90;;;;;;4977037;28;21008;-70
2024/04/07 01:10:56;;;;;;;22.88;21.48;;;19.00;99.90;;;;;;4996746;28;20543;-70
2024/04/07 01:13:26;;;;;;;22.92;21.38;;;19.10;99.90;;;;;;4974096;28;20064;-70
2024/04/07 01:15:53;;;;;;;23.50;21.45;;;19.10;99.90;;;;;;4964938;28;20617;-70
2024/04/07 01:18:19;;;;;;;23.02;21.30;;;19.20;99.90;;;;;;4999424;28;20058;-72
2024/04/07 01:20:46;;;;;;;22.80;21.30;;;19.30;99.90;;;;;;5006681;28;20050;-70
2024/04/07 01:23:18;;;;;;;23.17;21.58;;;19.30;99.90;;;;;;4978601;28;20334;-70
2024/04/07 01:25:45;;;;;;;22.50;20.88;;;19.30;99.90;;;;;;4994590;28;20069;-70
2024/04/07 01:28:12;;;;;;;23.50;21.45;;;19.30;99.90;;;;;;4969865;28;20049;-69
2024/04/07 01:30:38;;;;;;;23.25;21.65;;;19.40;99.90;;;;;;4977800;28;20542;-70
2024/04/07 01:33:05;;;;;;;22.98;21.35;;;19.40;99.90;;;;;;4994108;28;20464;-71
2024/04/07 01:35:31;;;;;;;23.48;21.58;;;19.40;99.90;;;;;;5000570;28;20100;-71
2024/04/07 01:37:58;;;;;;;23.42;21.40;;;19.30;99.90;;;;;;4978176;28;20500;-69
2024/04/07 01:40:24;;;;;;;23.20;21.50;;;19.40;99.90;;;;;;4977592;28;20049;-70
2024/04/07 01:42:51;;;;;;;23.25;21.65;;;19.40;99.90;;;;;;4995215;28;20360;-70
2024/04/07 01:45:18;;;;;;;23.27;21.67;;;19.50;99.90;;;;;;5004556;28;20048;-70
2024/04/07 01:47:44;;;;;;;23.65;22.00;;;19.40;99.90;;;;;;4980291;28;20421;-68
2024/04/07 01:50:10;;;;;;;24.27;21.83;;;19.50;99.90;;;;;;4975417;28;20054;-70
2024/04/07 01:52:37;;;;;;;23.95;21.90;;;19.50;99.90;;;;;;4982312;28;20045;-69
2024/04/07 01:55:03;;;;;;;23.25;21.45;;;19.40;99.90;;;;;;4995497;28;20055;-71
2024/04/07 01:57:29;;;;;;;23.38;21.70;;;19.40;99.90;;;;;;4981199;28;20049;-70
2024/04/07 01:59:55;;;;;;;23.58;21.63;;;19.30;99.90;;;;;;4994413;28;20100;-70
2024/04/07 02:02:22;;;;;;;23.30;21.70;;;19.30;99.90;;;;;;5009130;28;20054;-71
2024/04/07 02:04:49;;;;;;;23.67;21.75;;;19.30;99.90;;;;;;4997214;28;20057;-70
2024/04/07 02:07:18;;;;;;;23.38;21.65;;;19.30;99.90;;;;;;4996585;28;20045;-71
2024/04/07 02:09:48;;;;;;;23.63;21.80;;;19.30;99.90;;;;;;4961791;28;20041;-69
2024/04/07 02:12:13;;;;;;;23.45;21.70;;;19.30;99.90;;;;;;4980269;28;20042;-69
2024/04/07 02:14:40;;;;;;;23.58;21.92;;;19.30;99.90;;;;;;5017676;28;20069;-69
2024/04/07 02:17:06;;;;;;;23.25;21.65;;;19.20;99.90;;;;;;4994787;28;20039;-71
2024/04/07 02:19:33;;;;;;;23.40;21.75;;;19.20;99.90;;;;;;5010067;28;20108;-70
2024/04/07 02:21:59;;;;;;;23.40;21.80;;;19.20;99.90;;;;;;4962430;28;20045;-71
2024/04/07 02:24:25;;;;;;;24.20;22.38;;;19.10;99.90;;;;;;4982589;28;20060;-70
2024/04/07 02:26:52;;;;;;;23.90;22.15;;;19.00;99.90;;;;;;5011571;28;20076;-70
2024/04/07 02:29:18;;;;;;;24.15;22.45;;;18.90;99.90;;;;;;4973625;28;20056;-70
2024/04/07 02:31:45;;;;;;;23.65;22.05;;;18.80;99.90;;;;;;4985629;28;20042;-70
2024/04/07 02:34:12;;;;;;;23.75;22.15;;;18.70;99.90;;;;;;4993830;28;20513;-69
2024/04/07 02:36:38;;;;;;;24.55;22.92;;;18.50;99.90;;;;;;4995184;28;20521;-70
2024/04/07 02:39:09;;;;;;;24.13;22.48;;;18.40;99.90;;;;;;4989541;28;20376;-70
2024/04/07 02:41:41;;;;;;;24.90;23.13;;;18.20;99.90;;;;;;4993019;28;20040;-70
2024/04/07 02:44:07;;;;;;;24.30;22.73;;;18.10;99.90;;;;;;4998983;28;20068;-71
2024/04/07 02:49:18;;;;;;;26.70;24.50;;;18.10;99.90;;;;;;4987838;28;20050;-70
2024/04/07 02:51:44;;;;;;;24.52;22.80;;;17.90;99.90;;;;;;4996468;28;20078;-71
2024/04/07 02:54:11;;;;;;;24.90;22.98;;;17.70;99.90;;;;;;4975693;28;20042;-71
2024/04/07 02:56:37;;;;;;;25.52;23.52;;;17.50;99.90;;;;;;4995636;28;20029;-69
2024/04/07 02:59:04;;;;;;;24.80;23.10;;;17.40;99.90;;;;;;4990645;28;20063;-70
2024/04/07 03:01:30;;;;;;;25.88;23.77;;;17.30;99.90;;;;;;4980412;28;20598;-70
2024/04/07 03:03:56;;;;;;;24.60;22.65;;;17.20;99.90;;;;;;4978340;28;21352;-69
2024/04/07 03:06:23;;;;;;;25.35;23.45;;;17.10;99.90;;;;;;4995082;28;20030;-70
2024/04/07 03:08:49;;;;;;;25.27;23.30;;;17.00;99.90;;;;;;5010249;28;20068;-70
2024/04/07 03:11:15;;;;;;;24.50;22.70;;;17.00;99.90;;;;;;4959619;28;20067;-70
2024/04/07 03:13:41;;;;;;;25.05;23.27;;;16.90;99.90;;;;;;4980867;28;20048;-71
2024/04/07 03:16:14;;;;;;;24.85;23.17;;;16.70;99.90;;;;;;4981801;28;20040;-69
2024/04/07 03:18:41;;;;;;;24.20;22.25;;;16.50;99.90;;;;;;4988776;28;20662;-70
2024/04/07 03:21:08;;;;;;;24.20;22.45;;;16.40;99.90;;;;;;4989946;28;20096;-72
2024/04/07 03:23:33;;;;;;;24.52;22.38;;;16.30;99.90;;;;;;4995589;28;20128;-71
2024/04/07 03:26:00;;;;;;;23.35;21.85;;;16.20;99.90;;;;;;4994147;28;20045;-70
2024/04/07 03:28:27;;;;;;;23.75;22.23;;;16.10;99.90;;;;;;4968241;28;20042;-69
2024/04/07 03:30:53;;;;;;;23.25;21.45;;;16.00;99.90;;;;;;4979060;28;20060;-70
2024/04/07 03:33:19;;;;;;;23.50;21.80;;;16.10;99.90;;;;;;4963904;28;20066;-69
2024/04/07 03:35:45;;;;;;;23.88;21.77;;;16.20;99.90;;;;;;4977301;28;20097;-70
2024/04/07 03:38:12;;;;;;;23.10;21.30;;;16.40;99.90;;;;;;4993743;28;20153;-70
2024/04/07 03:40:38;;;;;;;23.90;22.10;;;16.50;99.90;;;;;;4989524;28;20042;-68
2024/04/07 03:43:05;;;;;;;24.35;22.10;;;16.60;99.90;;;;;;4991322;28;20053;-69
2024/04/07 03:45:31;;;;;;;23.80;21.80;;;16.70;99.90;;;;;;4975607;28;20050;-70
2024/04/07 03:47:57;;;;;;;24.20;22.30;;;16.80;99.90;;;;;;4979678;28;20063;-69
2024/04/07 03:50:23;;;;;;;24.30;22.10;;;16.90;99.90;;;;;;4956665;28;20149;-70
2024/04/07 03:52:49;;;;;;;24.20;22.02;;;17.20;99.90;;;;;;4986444;28;20504;-70
2024/04/07 03:55:16;;;;;;;23.35;21.35;;;17.60;99.90;;;;;;4990756;28;20049;-71
2024/04/07 03:57:42;;;;;;;23.65;21.50;;;17.80;99.90;;;;;;4991523;28;20042;-70
2024/04/07 04:00:08;;;;;;;24.75;22.67;;;17.90;99.90;;;;;;4986712;28;20057;-70
2024/04/07 04:02:37;;;;;;;24.23;22.35;;;18.10;99.90;;;;;;4985264;28;20060;-68
2024/04/07 04:05:04;;;;;;;24.13;22.15;;;18.40;99.90;;;;;;4974423;28;20076;-70
2024/04/07 04:07:31;;;;;;;25.42;23.00;;;18.60;99.90;;;;;;5002515;28;20080;-68
2024/04/07 04:10:01;;;;;;;24.77;22.25;;;18.80;99.90;;;;;;4996855;28;20152;-70
2024/04/07 04:12:28;;;;;;;24.23;22.10;;;18.80;99.90;;;;;;5004921;28;20088;-68
2024/04/07 04:14:56;;;;;;;24.70;22.30;;;18.80;99.90;;;;;;4978310;28;20899;-68
2024/04/07 04:17:23;;;;;;;24.63;22.55;;;18.90;99.90;;;;;;4991469;28;20077;-69
2024/04/07 04:19:50;;;;;;;23.85;21.90;;;18.90;99.90;;;;;;4979662;28;20127;-71
2024/04/07 04:22:17;;;;;;;24.50;22.35;;;18.80;99.90;;;;;;4974241;28;20042;-70
2024/04/07 04:24:43;;;;;;;24.38;22.23;;;18.70;99.90;;;;;;4993143;28;20051;-70
2024/04/07 04:27:09;;;;;;;24.08;22.15;;;18.60;99.90;;;;;;4989928;28;20056;-69
2024/04/07 04:29:36;;;;;;;24.55;22.60;;;18.50;99.90;;;;;;5000862;28;20050;-70
2024/04/07 04:32:03;;;;;;;24.65;22.48;;;18.40;99.90;;;;;;4995808;28;20042;-70
2024/04/07 04:34:33;;;;;;;24.48;22.40;;;18.40;99.90;;;;;;4995245;28;20038;-71
2024/04/07 04:37:01;;;;;;;25.10;22.52;;;18.40;99.90;;;;;;5005963;28;20397;-71
2024/04/07 04:39:27;;;;;;;24.85;22.77;;;18.30;99.90;;;;;;5009328;28;20054;-69
2024/04/07 04:41:53;;;;;;;24.73;22.67;;;18.20;99.90;;;;;;5027744;28;20038;-70
2024/04/07 04:44:19;;;;;;;24.40;22.42;;;18.10;99.90;;;;;;4973991;28;20659;-69
2024/04/07 04:46:47;;;;;;;24.60;22.38;;;18.00;99.90;;;;;;4998856;28;20104;-70
2024/04/07 04:49:16;;;;;;;32.80;30.05;;;17.90;99.90;;;;;;4993892;28;20042;-70
2024/04/07 04:51:43;;;;;;;24.52;22.48;;;17.80;99.90;;;;;;4995906;28;20064;-68
2024/04/07 04:54:11;;;;;;;24.02;22.05;;;17.70;99.90;;;;;;4973927;28;20084;-70
2024/04/07 04:56:37;;;;;;;24.48;22.30;;;17.60;99.90;;;;;;5007243;28;20038;-70
2024/04/07 04:59:05;;;;;;;25.13;22.70;;;17.60;99.90;;;;;;4995520;28;20079;-70
2024/04/07 05:01:32;;;;;;;25.27;22.85;;;17.50;99.90;;;;;;4976499;28;20037;-69
2024/04/07 05:03:59;;;;;;;24.30;22.08;;;17.50;99.90;;;;;;4979317;28;20049;-70
2024/04/07 05:06:25;;;;;;;25.52;23.00;;;17.40;99.90;;;;;;4980858;28;20053;-70
2024/04/07 05:08:51;;;;;;;24.67;22.48;;;17.40;99.90;;;;;;4980633;28;20081;-70
2024/04/07 05:11:18;;;;;;;42.30;39.60;;;17.30;99.90;;;;;;4996090;28;20042;-69
2024/04/07 05:13:44;;;;;;;40.90;38.10;;;17.30;99.90;;;;;;5017811;28;20041;-68
2024/04/07 05:16:11;;;;;;;42.10;38.95;;;17.20;99.90;;;;;;5013288;28;20077;-72
2024/04/07 05:18:37;;;;;;;40.92;37.97;;;17.10;99.90;;;;;;4981520;28;20046;-71
2024/04/07 05:21:05;;;;;;;40.58;37.50;;;17.00;99.90;;;;;;4976820;28;20609;-71
2024/04/07 05:23:33;;;;;;;39.22;36.33;;;17.00;99.90;;;;;;4988300;28;20034;-70
2024/04/07 05:26:11;;;;;;;41.13;38.15;;;16.90;99.90;;;;;;5006335;28;20056;-69
2024/04/07 05:28:37;;;;;;;41.58;38.30;;;16.90;99.90;;;;;;4991955;28;20120;-70
2024/04/07 05:31:04;;;;;;;40.50;37.85;;;16.90;99.90;;;;;;4979285;28;20034;-71
2024/04/07 05:33:31;;;;;;;40.67;37.80;;;16.80;99.90;;;;;;5000170;28;21047;-69
2024/04/07 05:35:57;;;;;;;36.38;33.88;;;16.60;99.90;;;;;;4996212;28;20053;-70
2024/04/07 05:38:24;;;;;;;35.47;32.60;;;16.50;99.90;;;;;;4975772;28;20062;-71
2024/04/07 05:40:58;;;;;;;33.40;30.77;;;16.50;99.90;;;;;;4993847;28;20052;-69
2024/04/07 05:43:24;;;;;;;35.08;32.30;;;16.50;99.90;;;;;;4979489;28;20212;-71
2024/04/07 05:45:51;;;;;;;35.65;32.83;;;16.50;99.90;;;;;;4995048;28;20046;-70
2024/04/07 05:48:18;;;;;;;38.13;34.83;;;16.40;99.90;;;;;;4955904;28;20662;-71
2024/04/07 05:50:44;;;;;;;37.03;34.20;;;16.50;99.90;;;;;;5006070;28;20042;-71
2024/04/07 05:53:10;;;;;;;39.63;36.70;;;16.50;99.90;;;;;;4972886;28;20129;-70
2024/04/07 05:55:37;;;;;;;39.78;37.40;;;16.40;99.90;;;;;;4983258;28;20049;-70
2024/04/07 05:58:03;;;;;;;40.60;38.10;;;16.40;99.90;;;;;;4997466;28;20100;-70
2024/04/07 06:00:31;;;;;;;40.40;37.65;;;16.30;99.90;;;;;;4993896;28;20042;-70
2024/04/07 06:02:57;;;;;;;40.88;38.30;;;16.20;99.90;;;;;;4971823;28;20053;-70
2024/04/07 06:05:24;;;;;;;40.85;37.97;;;16.20;99.90;;;;;;4993186;28;20590;-70
2024/04/07 06:07:51;;;;;;;39.75;36.92;;;16.20;99.90;;;;;;4990233;28;20930;-70
2024/04/07 06:10:17;;;;;;;40.78;37.72;;;16.20;99.90;;;;;;5003062;28;20046;-69
2024/04/07 06:12:43;;;;;;;40.08;37.55;;;16.20;99.90;;;;;;4993695;28;20072;-71
2024/04/07 06:15:09;;;;;;;41.03;38.13;;;16.30;99.90;;;;;;4992862;28;20278;-70
2024/04/07 06:17:35;;;;;;;41.25;38.30;;;16.30;99.90;;;;;;4960384;28;20118;-70
2024/04/07 06:20:03;;;;;;;41.78;38.97;;;16.30;99.90;;;;;;5003427;28;20060;-71
2024/04/07 06:22:30;;;;;;;41.58;38.15;;;16.30;99.90;;;;;;4974245;28;20062;-71
2024/04/07 06:24:59;;;;;;;37.78;35.22;;;16.30;99.90;;;;;;4974415;28;20808;-70
2024/04/07 06:27:26;;;;;;;39.33;36.42;;;16.40;99.90;;;;;;4993872;28;20054;-71
2024/04/07 06:29:58;;;;;;;37.30;35.00;;;16.40;99.90;;;;;;4994011;28;20787;-71
2024/04/07 06:32:28;;;;;;;38.67;36.08;;;16.40;99.90;;;;;;4974558;28;20042;-71
2024/04/07 06:34:55;;;;;;;36.00;33.85;;;16.40;99.90;;;;;;4974828;28;20129;-69
2024/04/07 06:37:22;;;;;;;36.72;34.30;;;16.40;99.90;;;;;;4991411;28;20068;-68
2024/04/07 06:39:48;;;;;;;35.90;33.40;;;16.40;99.90;;;;;;4980095;28;20072;-70
2024/04/07 06:42:27;;;;;;;40.13;37.28;;;16.40;99.90;;;;;;4994766;28;20096;-69
2024/04/07 06:44:54;;;;;;;42.88;39.92;;;16.50;99.90;;;;;;4976204;28;20049;-70
2024/04/07 06:47:21;;;;;;;42.13;39.70;;;16.60;99.90;;;;;;5003128;28;20046;-69
2024/04/07 06:49:52;;;;;;;42.72;39.90;;;16.80;99.90;;;;;;5007409;28;20559;-70
2024/04/07 06:52:19;;;;;;;36.72;34.08;;;16.90;99.90;;;;;;4972152;28;20045;-71
2024/04/07 06:54:45;;;;;;;39.03;35.97;;;16.80;99.90;;;;;;4990031;28;20050;-71
2024/04/07 06:57:16;;;;;;;37.47;35.13;;;16.90;99.90;;;;;;4955109;28;20041;-70
2024/04/07 06:59:43;;;;;;;39.83;37.10;;;16.80;99.90;;;;;;4997010;28;20046;-71
2024/04/07 07:02:09;;;;;;;36.95;34.83;;;16.80;99.90;;;;;;4991628;28;20042;-71
2024/04/07 07:04:36;;;;;;;35.95;33.85;;;16.80;99.90;;;;;;4978984;28;20236;-70
2024/04/07 07:07:03;;;;;;;37.70;35.25;;;16.70;99.90;;;;;;4996494;28;20045;-72
2024/04/07 07:09:29;;;;;;;34.00;31.85;;;16.60;99.90;;;;;;5008259;28;20046;-70
2024/04/07 07:11:55;;;;;;;41.42;38.83;;;16.60;99.90;;;;;;4975867;28;20074;-70
2024/04/07 07:14:22;;;;;;;44.15;41.00;;;16.60;99.90;;;;;;4995502;28;20030;-71
2024/04/07 07:16:48;;;;;;;44.63;41.83;;;16.60;99.90;;;;;;4982103;28;20615;-70
2024/04/07 07:19:15;;;;;;;38.13;35.53;;;16.60;99.90;;;;;;4989125;28;20520;-69
2024/04/07 07:21:41;;;;;;;39.25;36.58;;;16.60;99.90;;;;;;4995915;28;20045;-70
2024/04/07 07:24:07;;;;;;;36.92;34.22;;;16.80;99.90;;;;;;4980929;28;20406;-71
2024/04/07 07:26:36;;;;;;;35.70;33.30;;;16.80;99.90;;;;;;5008538;28;20045;-69
2024/04/07 07:29:03;;;;;;;43.17;40.17;;;17.00;99.90;;;;;;4987257;28;20460;-68
2024/04/07 07:31:32;;;;;;;36.78;34.17;;;17.10;99.90;;;;;;4997322;28;20050;-69
2024/04/07 07:33:58;;;;;;;35.15;32.40;;;17.20;99.90;;;;;;4996274;28;20053;-70
2024/04/07 07:36:25;;;;;;;36.17;34.00;;;17.30;99.90;;;;;;4993969;28;20457;-70
2024/04/07 07:38:51;;;;;;;37.70;35.38;;;17.20;99.90;;;;;;4999111;28;20062;-69
2024/04/07 07:41:18;;;;;;;40.53;38.13;;;17.20;99.90;;;;;;4983821;28;20045;-69
2024/04/07 07:43:45;;;;;;;44.28;41.65;;;17.10;99.90;;;;;;4994646;28;20548;-70
2024/04/07 07:46:11;;;;;;;39.45;37.03;;;17.10;99.90;;;;;;4961752;28;20046;-70
2024/04/07 07:48:41;;;;;;;37.40;35.15;;;17.20;99.90;;;;;;4979649;28;20062;-71
2024/04/07 07:51:10;;;;;;;39.15;36.67;;;17.20;99.90;;;;;;4992063;28;20049;-69
2024/04/07 07:53:37;;;;;;;37.08;34.45;;;17.20;99.90;;;;;;4996011;28;20159;-68
2024/04/07 07:56:05;;;;;;;36.90;34.35;;;17.10;99.90;;;;;;4983439;28;20603;-70
2024/04/07 07:58:33;;;;;;;39.85;37.00;;;17.00;99.90;;;;;;5000900;28;20073;-68
2024/04/07 08:00:59;;;;;;;38.03;35.40;;;16.90;99.90;;;;;;4986751;28;20046;-70
2024/04/07 08:03:25;;;;;;;39.65;36.85;;;17.00;99.90;;;;;;4998522;28;20088;-69
2024/04/07 08:05:51;;;;;;;36.22;34.03;;;17.10;99.90;;;;;;4989281;28;20535;-71
2024/04/07 08:08:19;;;;;;;39.47;36.97;;;17.10;99.90;;;;;;4985856;28;20049;-70
2024/04/07 08:10:48;;;;;;;38.22;35.55;;;17.00;99.90;;;;;;4963995;28;20049;-68
2024/04/07 08:13:14;;;;;;;48.45;45.42;;;16.90;99.90;;;;;;5009506;28;20217;-70
2024/04/07 08:15:41;;;;;;;51.95;49.05;;;16.80;99.90;;;;;;4979520;28;20045;-70
2024/04/07 08:18:09;;;;;;;52.63;49.63;;;16.80;99.90;;;;;;4986826;28;20050;-70
2024/04/07 08:20:36;;;;;;;34.30;31.95;;;16.70;99.90;;;;;;4995785;28;20051;-70
2024/04/07 08:23:02;;;;;;;36.28;34.15;;;16.80;99.90;;;;;;4962215;28;20140;-70
2024/04/07 08:25:28;;;;;;;39.22;36.63;;;16.80;99.90;;;;;;4971403;28;20271;-69
2024/04/07 08:27:54;;;;;;;35.95;33.97;;;16.80;99.90;;;;;;4991837;28;20288;-68
2024/04/07 08:30:20;;;;;;;35.58;32.70;;;16.80;99.90;;;;;;4979600;28;20057;-70
2024/04/07 08:32:46;;;;;;;35.63;33.05;;;16.90;99.90;;;;;;4975539;28;20065;-68
2024/04/07 08:35:13;;;;;;;35.15;32.65;;;17.00;99.90;;;;;;4991841;28;20060;-70
2024/04/07 08:37:40;;;;;;;34.10;31.63;;;17.10;99.90;;;;;;4976319;28;20084;-70
2024/04/07 08:40:07;;;;;;;36.08;33.67;;;17.30;99.90;;;;;;5010037;28;20046;-70
2024/04/07 08:42:34;;;;;;;38.03;35.55;;;17.50;99.90;;;;;;4992602;28;20050;-70
2024/04/07 08:45:02;;;;;;;36.67;33.92;;;17.70;99.90;;;;;;4987217;28;20050;-71
2024/04/07 08:47:29;;;;;;;34.75;32.40;;;17.90;99.90;;;;;;4983379;28;20097;-70
2024/04/07 08:49:59;;;;;;;34.85;32.40;;;18.10;99.90;;;;;;4990115;28;20081;-70
2024/04/07 08:52:28;;;;;;;33.03;30.63;;;18.50;99.90;;;;;;4994084;28;20049;-70
2024/04/07 08:54:55;;;;;;;34.25;31.65;;;18.80;99.90;;;;;;4984340;28;20065;-70
2024/04/07 08:57:23;;;;;;;33.55;31.00;;;19.20;99.90;;;;;;4977133;28;20050;-71
2024/04/07 08:59:51;;;;;;;33.78;31.40;;;19.70;99.90;;;;;;4991675;28;20049;-68
2024/04/07 09:02:19;;;;;;;32.70;30.52;;;19.80;99.90;;;;;;4980470;28;20072;-69
2024/04/07 09:04:46;;;;;;;37.70;34.90;;;20.00;99.90;;;;;;4980323;28;21397;-70
2024/04/07 09:07:12;;;;;;;33.13;30.90;;;20.10;99.90;;;;;;4986537;28;20037;-71
2024/04/07 09:09:39;;;;;;;31.50;29.27;;;20.00;99.90;;;;;;4997657;28;20049;-69
2024/04/07 09:12:08;;;;;;;34.53;32.05;;;20.10;99.90;;;;;;4979030;28;20046;-70
2024/04/07 09:14:35;;;;;;;35.47;32.85;;;20.30;99.90;;;;;;4966017;28;20066;-70
2024/04/07 09:17:05;;;;;;;37.25;34.72;;;20.20;99.90;;;;;;4979408;28;20046;-67
2024/04/07 09:19:38;;;;;;;38.97;36.47;;;20.40;99.90;;;;;;4983077;28;20042;-70
2024/04/07 09:22:08;;;;;;;38.00;35.25;;;20.50;99.90;;;;;;4953329;28;20087;-71
2024/04/07 09:24:35;;;;;;;32.85;30.83;;;20.70;99.90;;;;;;4996777;28;20045;-70
2024/04/07 09:27:06;;;;;;;38.40;35.53;;;20.70;99.90;;;;;;4990407;28;21134;-67
2024/04/07 09:29:34;;;;;;;50.42;47.83;;;20.90;99.90;;;;;;4994328;28;20069;-68
2024/04/07 09:32:01;;;;;;;47.47;44.58;;;20.90;99.90;;;;;;4981690;28;20030;-68
2024/04/07 09:34:31;;;;;;;51.47;48.45;;;20.80;99.90;;;;;;4988928;28;20046;-67
2024/04/07 09:37:02;;;;;;;52.55;49.33;;;21.00;99.90;;;;;;4988813;28;20057;-68
2024/04/07 09:39:28;;;;;;;54.00;50.95;;;21.30;99.90;;;;;;4975013;28;20050;-68
2024/04/07 09:41:59;;;;;;;51.75;48.45;;;21.40;99.90;;;;;;4993152;28;20038;-68
2024/04/07 09:44:32;;;;;;;53.90;50.83;;;21.60;99.90;;;;;;5003381;28;20052;-69
2024/04/07 09:47:03;;;;;;;53.38;50.17;;;21.80;99.90;;;;;;5005699;28;20046;-67
2024/04/07 09:49:35;;;;;;;53.58;50.22;;;21.80;99.90;;;;;;4996679;28;20175;-69
2024/04/07 09:52:05;;;;;;;53.88;50.60;;;21.90;99.90;;;;;;4970485;28;20046;-68
2024/04/07 09:54:41;;;;;;;54.92;51.92;;;22.10;99.90;;;;;;4995529;28;20049;-68
2024/04/07 09:57:13;;;;;;;58.17;54.80;;;22.10;99.90;;;;;;4975895;28;20052;-69
2024/04/07 09:59:42;;;;;;;58.92;55.78;;;22.10;99.90;;;;;;4991403;28;20509;-69
2024/04/07 10:02:11;;;;;;;58.33;54.88;;;22.00;99.90;;;;;;4988429;28;20046;-70
2024/04/07 10:04:38;;;;;;;59.45;56.25;;;21.90;99.90;;;;;;4977371;28;20127;-69
2024/04/07 10:07:06;;;;;;;59.72;56.33;;;22.40;99.90;;;;;;4986507;28;20713;-69
2024/04/07 10:09:34;;;;;;;59.60;55.95;;;22.00;99.90;;;;;;4995071;28;20068;-67
2024/04/07 10:12:00;;;;;;;59.10;56.00;;;22.00;99.90;;;;;;4980407;28;20044;-67
2024/04/07 10:14:41;;;;;;;58.97;55.55;;;22.10;99.90;;;;;;4997058;28;20053;-69
2024/04/07 10:17:09;;;;;;;57.35;54.15;;;22.00;99.90;;;;;;4970829;28;20045;-70
2024/04/07 10:19:42;;;;;;;61.38;57.78;;;22.20;99.90;;;;;;4978606;28;20041;-68
2024/04/07 10:22:08;;;;;;;58.63;55.35;;;22.40;99.90;;;;;;4972088;28;20038;-69
2024/04/07 10:24:35;;;;;;;59.65;56.58;;;22.60;99.90;;;;;;4979036;28;20041;-69
2024/04/07 10:27:08;;;;;;;61.58;58.38;;;22.30;99.90;;;;;;4986678;28;20120;-68
2024/04/07 10:29:35;;;;;;;60.97;57.47;;;22.10;99.90;;;;;;4994321;28;20569;-70
2024/04/07 10:32:03;;;;;;;59.83;56.47;;;22.00;99.90;;;;;;4993173;28;20038;-69
2024/04/07 10:34:30;;;;;;;59.92;56.67;;;21.90;99.90;;;;;;4995641;28;20149;-69
2024/04/07 10:36:57;;;;;;;58.55;55.35;;;21.80;99.90;;;;;;4987745;28;21029;-69
2024/04/07 10:39:23;;;;;;;61.40;58.10;;;22.10;99.90;;;;;;4975377;28;20111;-70
2024/04/07 10:41:50;;;;;;;58.88;55.78;;;22.20;99.90;;;;;;4989780;28;20033;-69
2024/04/07 10:44:19;;;;;;;60.22;56.72;;;22.30;99.90;;;;;;4998331;28;20793;-68
2024/04/07 10:46:46;;;;;;;60.00;56.70;;;22.60;99.90;;;;;;4993922;28;20050;-70
2024/04/07 10:49:12;;;;;;;51.25;48.55;;;23.00;99.90;;;;;;4974508;28;20054;-70
2024/04/07 10:51:38;;;;;;;54.42;51.53;;;23.10;99.90;;;;;;4993951;28;20046;-69
2024/04/07 10:54:08;;;;;;;49.42;46.80;;;23.20;99.90;;;;;;4981296;28;21083;-69
2024/04/07 10:56:34;;;;;;;50.90;48.03;;;22.70;99.90;;;;;;4992941;28;20045;-70
2024/04/07 10:59:01;;;;;;;49.63;46.75;;;22.40;99.90;;;;;;4977332;28;20108;-70
2024/04/07 11:01:28;;;;;;;46.25;43.58;;;22.40;99.90;;;;;;5008334;28;20117;-68
2024/04/07 11:03:59;;;;;;;49.20;46.47;;;22.20;99.90;;;;;;5002254;28;20045;-69
2024/04/07 11:06:28;;;;;;;57.78;54.78;;;21.90;99.90;;;;;;4973479;28;20152;-70
2024/04/07 11:08:55;;;;;;;51.13;48.33;;;21.80;99.90;;;;;;5008087;28;20133;-67
2024/04/07 11:11:23;;;;;;;50.65;47.92;;;21.70;99.90;;;;;;4981029;28;20646;-68
2024/04/07 11:13:54;;;;;;;49.45;46.75;;;21.80;99.90;;;;;;4979469;28;20052;-70
2024/04/07 11:16:21;;;;;;;51.17;48.22;;;21.80;99.90;;;;;;4979926;28;20042;-69
2024/04/07 11:18:47;;;;;;;52.97;50.17;;;21.70;99.90;;;;;;4995036;28;20053;-69
2024/04/07 11:21:13;;;;;;;52.17;49.35;;;21.60;99.90;;;;;;4981437;28;20042;-70
2024/04/07 11:23:40;;;;;;;50.85;48.03;;;21.60;99.90;;;;;;4979915;28;20046;-69
2024/04/07 11:26:09;;;;;;;51.00;48.08;;;21.60;99.90;;;;;;4991249;28;20979;-68
2024/04/07 11:28:38;;;;;;;50.00;47.30;;;21.70;99.90;;;;;;4984874;28;20116;-69
2024/04/07 11:31:08;;;;;;;50.75;47.67;;;21.70;99.90;;;;;;4976253;28;20623;-67
2024/04/07 11:33:34;;;;;;;52.25;49.45;;;21.60;99.90;;;;;;4984499;28;20405;-67
2024/04/07 11:36:03;;;;;;;51.30;48.60;;;21.70;99.90;;;;;;4998286;28;20134;-69
2024/04/07 11:38:32;;;;;;;51.67;48.88;;;21.70;99.90;;;;;;4984753;28;20057;-71
2024/04/07 11:41:18;;;;;;;66.50;62.85;;;21.70;99.90;;;;;;4984817;28;20553;-71
2024/04/07 11:43:45;;;;;;;63.70;60.15;;;22.00;99.90;;;;;;4999296;28;20108;-69
2024/04/07 11:46:12;;;;;;;51.25;48.45;;;22.30;99.90;;;;;;4977205;28;20662;-70
2024/04/07 11:48:39;;;;;;;63.13;59.30;;;22.30;99.90;;;;;;4985895;28;20049;-68
2024/04/07 11:51:05;;;;;;;59.15;56.13;;;22.30;99.90;;;;;;4998776;28;20651;-70
2024/04/07 11:53:31;;;;;;;61.67;58.28;;;22.50;99.90;;;;;;4994003;28;20049;-69
2024/04/07 11:55:57;;;;;;;60.53;57.22;;;22.80;99.90;;;;;;4996524;28;20044;-69
2024/04/07 11:58:23;;;;;;;59.08;55.60;;;22.90;99.90;;;;;;4993110;28;20046;-70
2024/04/07 12:00:49;;;;;;;54.80;51.72;;;22.70;99.90;;;;;;4975213;28;20111;-70
2024/04/07 12:03:16;;;;;;;55.92;52.63;;;22.60;99.90;;;;;;4990727;28;20121;-70
2024/04/07 12:05:43;;;;;;;56.30;52.95;;;22.60;99.90;;;;;;4994639;28;20045;-71
2024/04/07 12:08:10;;;;;;;53.50;50.30;;;22.70;99.90;;;;;;4973443;28;20410;-68
2024/04/07 12:10:36;;;;;;;56.08;52.78;;;22.70;99.90;;;;;;4991079;28;20161;-68
2024/04/07 12:13:02;;;;;;;53.33;50.22;;;22.90;99.90;;;;;;4988026;28;20046;-69
2024/04/07 12:15:30;;;;;;;56.58;53.47;;;22.90;99.90;;;;;;4962505;28;20038;-69
2024/04/07 12:17:56;;;;;;;56.03;52.67;;;22.70;99.90;;;;;;4975584;28;20081;-69
2024/04/07 12:20:22;;;;;;;56.72;53.58;;;22.70;99.90;;;;;;4991373;28;20104;-70
2024/04/07 12:22:48;;;;;;;57.80;54.58;;;22.70;99.90;;;;;;4981415;28;20053;-68
2024/04/07 12:25:15;;;;;;;56.33;53.03;;;23.00;99.90;;;;;;4972175;28;20742;-69
2024/04/07 12:27:41;;;;;;;56.28;53.42;;;23.30;99.90;;;;;;4960888;28;20852;-70
2024/04/07 12:30:10;;;;;;;53.42;50.33;;;23.40;99.90;;;;;;4988647;28;20045;-68
2024/04/07 12:32:39;;;;;;;53.72;50.65;;;23.30;99.90;;;;;;5032122;28;20045;-69
2024/04/07 12:35:05;;;;;;;52.38;49.50;;;23.40;99.90;;;;;;4984525;28;20037;-70